Time;durP1;ratioP1;P1;durP2;ratioP2;P2;SDS_P1;SDS_P2;PMS_P1;PMS_P2;Temp;Humidity;BMP_temperature;BMP_pressure;BME280_temperature;BME280_humidity;BME280_pressure;Samples;Min_cycle;Max_cycle;Signal;HPM_P1;HPM_P2
2022/04/10 00:00:44;;;;;;;12.23;4.65;;;;;;;5.17;67.19;101785.72;5073132;28;20055;-59
2022/04/10 00:03:10;;;;;;;12.30;4.68;;;;;;;5.10;66.07;101782.75;5073170;28;20369;-59
2022/04/10 00:05:36;;;;;;;9.32;4.32;;;;;;;5.04;66.85;101785.94;5073262;28;20024;-59
2022/04/10 00:08:02;;;;;;;9.13;4.38;;;;;;;5.06;66.45;101788.66;5072957;28;20469;-58
2022/04/10 00:10:27;;;;;;;7.55;4.30;;;;;;;5.12;67.30;101786.31;5073316;28;20029;-59
2022/04/10 00:12:53;;;;;;;9.98;4.68;;;;;;;5.10;65.68;101794.13;5073063;28;20401;-59
2022/04/10 00:15:18;;;;;;;10.65;4.38;;;;;;;5.01;66.20;101799.81;5073083;28;20020;-58
2022/04/10 00:17:43;;;;;;;10.10;4.63;;;;;;;4.94;66.69;101792.47;5072844;28;20028;-58
2022/04/10 00:20:09;;;;;;;12.82;4.90;;;;;;;4.83;66.90;101790.13;5073001;28;20495;-58
2022/04/10 00:22:46;;;;;;;13.10;4.63;;;;;;;4.80;67.52;101784.75;5072775;28;20587;-58
2022/04/10 00:25:15;;;;;;;8.65;4.30;;;;;;;4.81;67.18;101790.06;5072756;28;20028;-59
2022/04/10 00:27:41;;;;;;;9.55;4.60;;;;;;;4.83;67.05;101783.19;5072973;28;20025;-59
2022/04/10 00:30:08;;;;;;;9.82;4.65;;;;;;;4.88;67.60;101788.63;5072774;28;20097;-59
2022/04/10 00:32:33;;;;;;;11.65;4.75;;;;;;;4.90;67.71;101781.78;5072812;28;20024;-59
2022/04/10 00:34:59;;;;;;;13.02;4.72;;;;;;;4.89;67.13;101791.34;5072701;28;20377;-59
2022/04/10 00:37:25;;;;;;;13.65;4.72;;;;;;;4.89;66.99;101791.34;5072739;28;20082;-58
2022/04/10 00:39:50;;;;;;;10.35;4.70;;;;;;;4.87;66.80;101782.50;5072732;28;20416;-60
2022/04/10 00:42:16;;;;;;;14.02;4.80;;;;;;;4.88;66.77;101783.41;5072775;28;20032;-59
2022/04/10 00:44:42;;;;;;;13.65;4.63;;;;;;;4.80;66.92;101787.38;5072717;28;20532;-58
2022/04/10 00:47:10;;;;;;;10.48;4.60;;;;;;;4.75;68.12;101774.03;5072788;28;20052;-59
2022/04/10 00:49:38;;;;;;;10.27;4.78;;;;;;;4.78;67.80;101779.44;5072692;28;20028;-59
2022/04/10 00:52:07;;;;;;;8.40;4.45;;;;;;;4.75;67.66;101774.03;5072522;28;20086;-60
2022/04/10 00:54:34;;;;;;;11.98;4.80;;;;;;;4.77;67.67;101775.03;5072812;28;20119;-59
2022/04/10 00:57:00;;;;;;;9.50;4.60;;;;;;;4.72;68.43;101769.59;5072354;28;20486;-59
2022/04/10 00:59:27;;;;;;;10.48;4.57;;;;;;;4.68;67.64;101772.88;5072551;28;20099;-59
2022/04/10 01:01:52;;;;;;;9.77;5.13;;;;;;;4.66;67.86;101766.63;5072557;28;20103;-59
2022/04/10 01:04:17;;;;;;;10.90;5.15;;;;;;;4.69;67.67;101776.38;5075207;28;20100;-60
2022/04/10 01:06:46;;;;;;;10.93;5.15;;;;;;;4.74;67.45;101773.16;5076059;28;20392;-59
2022/04/10 01:09:12;;;;;;;10.13;5.00;;;;;;;4.74;67.74;101777.50;5076133;28;20469;-59
2022/04/10 01:11:37;;;;;;;9.63;5.13;;;;;;;4.75;68.00;101774.03;5076377;28;20024;-58
2022/04/10 01:14:04;;;;;;;10.13;4.75;;;;;;;4.73;67.66;101781.84;5076029;28;20481;-59
2022/04/10 01:16:31;;;;;;;12.77;5.40;;;;;;;4.70;68.03;101778.16;5076035;28;20032;-58
2022/04/10 01:18:57;;;;;;;9.50;4.57;;;;;;;4.68;67.94;101775.47;5076002;28;20527;-58
2022/04/10 01:21:26;;;;;;;16.30;5.15;;;;;;;4.68;68.00;101777.22;5075772;28;20440;-58
2022/04/10 01:23:52;;;;;;;9.93;5.15;;;;;;;4.66;67.86;101773.59;5075897;28;20078;-58
2022/04/10 01:26:18;;;;;;;9.85;4.95;;;;;;;4.67;69.53;101771.09;5075879;28;20047;-59
2022/04/10 01:29:03;;;;;;;13.50;5.07;;;;;;;4.74;68.52;101778.38;5075821;28;20064;-59
2022/04/10 01:31:30;;;;;;;11.07;4.97;;;;;;;4.72;68.90;101785.28;5075749;28;20021;-58
2022/04/10 01:33:58;;;;;;;13.13;5.05;;;;;;;4.82;68.86;101788.34;5075502;28;20029;-58
2022/04/10 01:36:25;;;;;;;13.00;5.38;;;;;;;4.90;68.19;101787.91;5075927;28;20024;-60
2022/04/10 01:38:53;;;;;;;10.23;5.30;;;;;;;4.99;68.90;101776.97;5075613;28;20538;-59
2022/04/10 01:41:19;;;;;;;14.77;5.72;;;;;;;5.04;67.70;101780.72;5075824;28;20374;-58
2022/04/10 01:43:49;;;;;;;8.60;5.10;;;;;;;5.05;67.97;101772.00;5075564;28;20461;-59
2022/04/10 01:46:15;;;;;;;11.93;5.47;;;;;;;5.08;67.55;101780.03;5075668;28;20040;-58
2022/04/10 01:48:41;;;;;;;13.90;5.90;;;;;;;5.00;68.01;101784.00;5075330;28;20392;-59
2022/04/10 01:51:07;;;;;;;13.40;5.95;;;;;;;4.96;67.86;101776.81;5075632;28;20485;-59
2022/04/10 01:53:34;;;;;;;9.73;5.47;;;;;;;4.97;68.05;101789.13;5075405;28;20104;-59
2022/04/10 01:55:59;;;;;;;12.45;5.95;;;;;;;4.90;67.84;101792.25;5075594;28;20039;-59
2022/04/10 01:58:25;;;;;;;12.82;5.85;;;;;;;4.85;68.04;101789.41;5075212;28;20048;-59
2022/04/10 02:00:50;;;;;;;13.35;5.93;;;;;;;4.82;67.60;101797.09;5075225;28;20381;-58
2022/04/10 02:03:15;;;;;;;11.98;5.38;;;;;;;4.79;68.07;101791.72;5075107;28;20025;-58
2022/04/10 02:05:41;;;;;;;10.35;5.53;;;;;;;4.77;68.51;101789.03;5075643;28;20158;-60
2022/04/10 02:08:06;;;;;;;10.80;5.88;;;;;;;4.82;68.56;101798.81;5075642;28;20068;-59
2022/04/10 02:10:31;;;;;;;14.00;5.47;;;;;;;4.84;69.04;101802.41;5075373;28;20103;-60
2022/04/10 02:12:57;;;;;;;10.85;5.22;;;;;;;4.83;69.35;101813.72;5075047;28;20389;-59
2022/04/10 02:15:22;;;;;;;13.20;5.78;;;;;;;4.85;69.33;101805.13;5074114;28;20393;-59
2022/04/10 02:17:48;;;;;;;9.55;5.72;;;;;;;4.83;69.13;101798.88;5074914;28;20359;-59
2022/04/10 02:20:13;;;;;;;11.82;5.93;;;;;;;4.77;68.31;101802.13;5074766;28;20025;-59
2022/04/10 02:22:38;;;;;;;12.82;6.05;;;;;;;4.71;69.33;101809.69;5075045;28;20367;-58
2022/04/10 02:25:04;;;;;;;10.07;5.88;;;;;;;4.66;69.36;101803.28;5074751;28;20175;-58
2022/04/10 02:27:29;;;;;;;10.85;6.50;;;;;;;4.60;69.60;101797.75;5074635;28;20121;-58
2022/04/10 02:29:55;;;;;;;16.48;6.78;;;;;;;4.56;69.33;101801.03;5074890;28;20017;-59
2022/04/10 02:32:20;;;;;;;11.60;6.03;;;;;;;4.51;70.31;101798.19;5074721;28;20028;-58
2022/04/10 02:34:45;;;;;;;12.75;6.53;;;;;;;4.44;69.76;101803.94;5074494;28;20066;-58
2022/04/10 02:37:11;;;;;;;14.90;6.65;;;;;;;4.42;69.60;101807.31;5074724;28;20060;-57
2022/04/10 02:39:36;;;;;;;13.88;6.60;;;;;;;4.40;70.47;101809.81;5074447;28;20366;-59
2022/04/10 02:42:02;;;;;;;15.95;6.30;;;;;;;4.45;70.98;101802.22;5074453;28;20055;-58
2022/04/10 02:44:27;;;;;;;14.77;6.88;;;;;;;4.40;70.11;101807.22;5074358;28;20081;-58
2022/04/10 02:46:53;;;;;;;14.05;6.28;;;;;;;4.33;71.01;101805.13;5074199;28;20039;-58
2022/04/10 02:49:19;;;;;;;13.65;7.03;;;;;;;4.19;70.59;101809.63;5074252;28;20477;-59
2022/04/10 02:51:46;;;;;;;14.18;6.53;;;;;;;4.14;70.64;101818.94;5074136;28;20063;-57
2022/04/10 02:54:11;;;;;;;13.27;6.70;;;;;;;4.04;70.58;101821.91;5074168;28;20038;-59
2022/04/10 02:56:37;;;;;;;11.80;6.53;;;;;;;3.96;70.83;101823.22;5073938;28;20474;-58
2022/04/10 02:59:02;;;;;;;15.38;6.75;;;;;;;3.91;71.30;101829.94;5074141;28;20117;-58
2022/04/10 03:01:27;;;;;;;14.18;7.18;;;;;;;3.86;72.15;101827.06;5073927;28;20029;-58
2022/04/10 03:03:53;;;;;;;16.75;7.22;;;;;;;3.84;71.47;101830.41;5073985;28;20082;-59
2022/04/10 03:06:19;;;;;;;12.07;7.00;;;;;;;3.79;72.10;101822.31;5073882;28;20103;-59
2022/04/10 03:08:44;;;;;;;15.70;6.70;;;;;;;3.84;72.07;101822.56;5073802;28;20162;-59
2022/04/10 03:11:09;;;;;;;13.73;7.00;;;;;;;3.84;71.75;101826.06;5073868;28;20024;-59
2022/04/10 03:13:35;;;;;;;11.45;6.65;;;;;;;3.87;72.29;101827.97;5073792;28;20465;-58
2022/04/10 03:16:00;;;;;;;13.00;7.15;;;;;;;3.87;71.90;101825.34;5073603;28;20483;-60
2022/04/10 03:18:26;;;;;;;10.15;6.57;;;;;;;3.84;71.93;101827.78;5073600;28;20020;-58
2022/04/10 03:20:51;;;;;;;15.63;6.80;;;;;;;3.87;71.74;101830.59;5073667;28;20467;-58
2022/04/10 03:23:17;;;;;;;11.15;6.80;;;;;;;3.81;71.82;101831.13;5073566;28;20028;-59
2022/04/10 03:25:43;;;;;;;12.20;7.07;;;;;;;3.75;72.07;101825.59;5073535;28;20113;-59
2022/04/10 03:28:08;;;;;;;13.60;6.88;;;;;;;3.74;71.80;101831.63;5073435;28;20075;-60
2022/04/10 03:30:33;;;;;;;14.77;6.82;;;;;;;3.71;72.01;101832.34;5073507;28;20035;-59
2022/04/10 03:32:59;;;;;;;16.30;7.03;;;;;;;3.68;72.33;101831.28;5073524;28;20039;-60
2022/04/10 03:35:24;;;;;;;11.43;7.05;;;;;;;3.65;72.32;101833.75;5073533;28;20025;-59
2022/04/10 03:37:49;;;;;;;16.08;7.25;;;;;;;3.62;72.26;101841.41;5073298;28;20035;-58
2022/04/10 03:40:15;;;;;;;11.77;6.60;;;;;;;3.59;72.42;101839.53;5073373;28;20070;-58
2022/04/10 03:42:41;;;;;;;12.88;7.10;;;;;;;3.57;72.60;101841.16;5073315;28;20093;-58
2022/04/10 03:45:10;;;;;;;13.32;6.90;;;;;;;3.51;73.30;101832.97;5073443;28;20016;-59
2022/04/10 03:47:38;;;;;;;12.30;7.32;;;;;;;3.44;72.97;101825.63;5073084;28;20024;-59
2022/04/10 03:50:05;;;;;;;14.88;6.70;;;;;;;3.46;72.84;101839.66;5073285;28;20040;-59
2022/04/10 03:52:30;;;;;;;14.02;7.30;;;;;;;3.46;72.90;101850.13;5073285;28;20020;-58
2022/04/10 03:54:56;;;;;;;13.65;6.60;;;;;;;3.47;72.92;101842.38;5073373;28;20187;-59
2022/04/10 03:57:21;;;;;;;19.10;7.70;;;;;;;3.51;72.63;101853.88;5073084;28;20059;-58
2022/04/10 03:59:46;;;;;;;14.73;7.75;;;;;;;3.47;72.47;101852.84;5073065;28;20043;-58
2022/04/10 04:02:16;;;;;;;12.02;7.30;;;;;;;3.44;73.19;101862.22;5073334;28;20044;-58
2022/04/10 04:04:42;;;;;;;14.63;7.28;;;;;;;3.35;73.51;101851.25;5073381;28;20024;-58
2022/04/10 04:07:07;;;;;;;14.15;7.15;;;;;;;3.28;73.69;101851.72;5072878;28;20031;-58
2022/04/10 04:09:32;;;;;;;11.93;7.07;;;;;;;3.31;73.44;101859.72;5073309;28;20040;-58
2022/04/10 04:11:58;;;;;;;12.20;7.38;;;;;;;3.31;73.75;101860.63;5073162;28;20021;-57
2022/04/10 04:14:23;;;;;;;14.02;7.10;;;;;;;3.34;73.67;101865.09;5073152;28;20063;-58
2022/04/10 04:16:48;;;;;;;16.45;7.10;;;;;;;3.32;73.13;101861.53;5072939;28;20389;-58
2022/04/10 04:19:13;;;;;;;16.58;8.65;;;;;;;3.30;73.75;101864.06;5072943;28;20020;-59
2022/04/10 04:21:39;;;;;;;14.07;6.82;;;;;;;3.30;73.41;101869.28;5072951;28;20066;-58
2022/04/10 04:24:04;;;;;;;10.70;6.85;;;;;;;3.30;73.34;101868.34;5072767;28;20377;-58
2022/04/10 04:26:30;;;;;;;13.77;7.25;;;;;;;3.28;73.76;101867.38;5072961;28;20471;-58
2022/04/10 04:28:55;;;;;;;18.95;8.30;;;;;;;3.19;73.24;101859.94;5072681;28;20589;-57
2022/04/10 04:31:20;;;;;;;11.80;7.53;;;;;;;3.15;73.40;101869.28;5072889;28;20402;-57
2022/04/10 04:33:45;;;;;;;13.52;7.40;;;;;;;3.13;73.59;101870.94;5072660;28;20031;-58
2022/04/10 04:36:11;;;;;;;11.57;7.45;;;;;;;3.13;73.67;101880.47;5072803;28;20021;-58
2022/04/10 04:38:37;;;;;;;15.38;7.45;;;;;;;3.11;73.71;101876.88;5074337;28;20035;-58
2022/04/10 04:41:02;;;;;;;12.77;7.30;;;;;;;3.16;73.36;101868.47;5076725;28;20060;-58
2022/04/10 04:43:27;;;;;;;13.82;6.85;;;;;;;3.22;73.44;101874.06;5076586;28;20021;-57
2022/04/10 04:45:53;;;;;;;12.50;7.60;;;;;;;3.23;73.04;101875.84;5076674;28;20079;-58
2022/04/10 04:48:18;;;;;;;13.07;7.45;;;;;;;3.22;73.50;101884.50;5076392;28;20078;-58
2022/04/10 04:50:44;;;;;;;12.90;7.05;;;;;;;3.24;73.51;101884.59;5076108;28;20430;-58
2022/04/10 04:53:09;;;;;;;12.18;6.78;;;;;;;3.29;72.36;101877.91;5075610;28;20536;-58
2022/04/10 04:55:35;;;;;;;14.02;7.05;;;;;;;3.49;72.23;101882.53;5075559;28;20104;-58
2022/04/10 04:58:00;;;;;;;13.63;7.18;;;;;;;3.63;71.17;101887.63;5075458;28;20482;-59
2022/04/10 05:00:25;;;;;;;11.88;6.68;;;;;;;3.67;71.11;101882.66;5075693;28;20489;-57
2022/04/10 05:02:51;;;;;;;9.80;6.40;;;;;;;3.69;70.50;101885.38;5075720;28;20087;-58
2022/04/10 05:05:16;;;;;;;9.70;6.68;;;;;;;3.68;70.70;101892.31;5075652;28;20020;-57
2022/04/10 05:07:42;;;;;;;13.00;6.97;;;;;;;3.73;70.67;101889.97;5075451;28;20032;-60
2022/04/10 05:10:07;;;;;;;13.02;6.72;;;;;;;3.78;70.38;101885.00;5075215;28;20056;-58
2022/04/10 05:12:34;;;;;;;11.60;6.70;;;;;;;3.78;70.92;101898.06;5075718;28;20237;-58
2022/04/10 05:15:00;;;;;;;11.38;6.72;;;;;;;3.75;70.18;101894.44;5075247;28;20434;-58
2022/04/10 05:17:28;;;;;;;10.30;6.57;;;;;;;3.79;69.98;101898.13;5075545;28;20029;-58
2022/04/10 05:19:53;;;;;;;12.85;7.18;;;;;;;3.73;70.43;101893.47;5075204;28;20391;-58
2022/04/10 05:22:19;;;;;;;11.15;6.82;;;;;;;3.75;70.21;101902.28;5075287;28;20103;-57
2022/04/10 05:24:44;;;;;;;11.43;6.65;;;;;;;3.83;69.77;101907.03;5075060;28;20020;-58
2022/04/10 05:27:10;;;;;;;13.57;7.18;;;;;;;3.87;69.42;101906.41;5074994;28;20043;-58
2022/04/10 05:29:36;;;;;;;11.15;6.53;;;;;;;3.95;69.37;101900.78;5075448;28;20059;-57
2022/04/10 05:32:02;;;;;;;14.23;7.30;;;;;;;4.05;69.20;101912.63;5075100;28;20093;-58
2022/04/10 05:34:27;;;;;;;11.85;7.03;;;;;;;4.13;69.59;101907.81;5075144;28;20453;-58
2022/04/10 05:36:53;;;;;;;14.52;7.05;;;;;;;4.18;69.11;101915.06;5075061;28;20031;-58
2022/04/10 05:39:18;;;;;;;12.30;7.15;;;;;;;4.26;70.03;101915.50;5075273;28;20028;-58
2022/04/10 05:41:44;;;;;;;10.98;6.82;;;;;;;4.35;69.67;101915.09;5074817;28;20107;-59
2022/04/10 05:44:09;;;;;;;10.73;6.38;;;;;;;4.44;69.57;101916.47;5075311;28;20036;-57
2022/04/10 05:46:38;;;;;;;12.23;7.00;;;;;;;4.48;69.62;101920.13;5075093;28;20039;-58
2022/04/10 05:49:07;;;;;;;13.68;6.45;;;;;;;4.49;70.05;101920.22;5074437;28;20480;-58
2022/04/10 05:51:32;;;;;;;14.32;6.93;;;;;;;4.53;70.49;101927.41;5074154;28;20024;-58
2022/04/10 05:53:57;;;;;;;12.95;6.65;;;;;;;4.62;70.66;101927.00;5074785;28;20028;-58
2022/04/10 05:56:23;;;;;;;12.68;7.07;;;;;;;4.77;70.71;101929.53;5074531;28;20040;-58
2022/04/10 05:58:48;;;;;;;10.75;6.85;;;;;;;4.97;70.48;101946.25;5074474;28;20079;-58
2022/04/10 06:01:13;;;;;;;11.13;6.90;;;;;;;5.14;69.94;101940.16;5074718;28;20024;-59
2022/04/10 06:03:39;;;;;;;14.60;6.97;;;;;;;5.36;69.43;101949.09;5074666;28;20028;-59
2022/04/10 06:06:04;;;;;;;15.70;6.97;;;;;;;5.58;69.91;101949.31;5074868;28;20437;-58
2022/04/10 06:08:30;;;;;;;13.30;6.07;;;;;;;5.80;69.04;101955.59;5074536;28;20441;-58
2022/04/10 06:10:55;;;;;;;10.98;5.78;;;;;;;5.96;68.62;101963.41;5074566;28;20385;-59
2022/04/10 06:13:21;;;;;;;10.95;5.75;;;;;;;6.08;67.76;101963.06;5074378;28;20712;-58
2022/04/10 06:15:47;;;;;;;12.50;5.68;;;;;;;6.16;67.77;101959.06;5074604;28;20035;-59
2022/04/10 06:18:13;;;;;;;14.15;5.45;;;;;;;6.19;66.90;101965.34;5074606;28;20119;-58
2022/04/10 06:20:38;;;;;;;8.90;5.03;;;;;;;6.38;67.63;101974.06;5074424;28;20112;-59
2022/04/10 06:23:03;;;;;;;11.48;5.63;;;;;;;6.48;67.54;101969.31;5074265;28;20103;-58
2022/04/10 06:25:29;;;;;;;10.20;5.50;;;;;;;6.62;66.10;101967.31;5074159;28;20020;-58
2022/04/10 06:27:56;;;;;;;11.10;5.53;;;;;;;6.73;66.10;101967.81;5074007;28;20382;-60
2022/04/10 06:30:22;;;;;;;12.93;5.28;;;;;;;6.84;66.07;101984.91;5073931;28;20032;-59
2022/04/10 06:32:47;;;;;;;12.63;5.50;;;;;;;6.93;65.20;101974.81;5074117;28;20024;-59
2022/04/10 06:35:13;;;;;;;11.50;5.15;;;;;;;6.99;64.46;101974.19;5073965;28;20020;-58
2022/04/10 06:37:38;;;;;;;11.45;5.40;;;;;;;7.10;65.17;101987.78;5074000;28;20111;-60
2022/04/10 06:40:05;;;;;;;8.85;5.22;;;;;;;7.21;65.73;101983.91;5073586;28;20028;-60
2022/04/10 06:42:30;;;;;;;10.30;4.65;;;;;;;7.32;64.07;101987.88;5073608;28;20322;-60
2022/04/10 06:44:55;;;;;;;11.70;5.07;;;;;;;7.46;64.60;101991.09;5073582;28;20024;-59
2022/04/10 06:47:21;;;;;;;12.93;5.13;;;;;;;7.51;64.21;101994.81;5073299;28;20020;-58
2022/04/10 06:49:46;;;;;;;11.05;5.00;;;;;;;7.69;64.36;101992.03;5073682;28;20569;-59
2022/04/10 06:52:12;;;;;;;7.38;4.90;;;;;;;7.88;64.68;101996.28;5073477;28;20020;-59
2022/04/10 06:54:37;;;;;;;7.40;4.93;;;;;;;7.96;63.73;102003.66;5073579;28;20027;-59
2022/04/10 06:57:03;;;;;;;11.75;4.95;;;;;;;8.05;62.49;102005.78;5073246;28;20056;-59
2022/04/10 06:59:28;;;;;;;10.43;4.63;;;;;;;8.12;62.75;102004.28;5073649;28;20303;-59
2022/04/10 07:01:53;;;;;;;11.15;4.97;;;;;;;8.24;63.50;101996.84;5073138;28;20059;-59
2022/04/10 07:04:18;;;;;;;8.30;4.43;;;;;;;8.43;64.05;101996.75;5073354;28;20428;-58
2022/04/10 07:06:46;;;;;;;9.70;4.60;;;;;;;8.65;62.88;101995.84;5073151;28;20020;-59
2022/04/10 07:09:13;;;;;;;11.38;4.47;;;;;;;8.81;61.02;101999.91;5073018;28;20028;-59
2022/04/10 07:11:38;;;;;;;10.27;4.63;;;;;;;8.97;61.33;102002.25;5073241;28;20021;-58
2022/04/10 07:14:04;;;;;;;10.18;4.60;;;;;;;9.12;61.49;102015.09;5072796;28;20051;-59
2022/04/10 07:16:29;;;;;;;9.40;4.32;;;;;;;9.19;60.58;102006.53;5073526;28;20100;-60
2022/04/10 07:18:54;;;;;;;12.05;4.53;;;;;;;9.29;60.57;102010.41;5072781;28;20024;-60
2022/04/10 07:23:41;;;;;;;10.95;4.43;;;;;;;9.43;60.41;102005.63;5073092;28;20074;-59
2022/04/10 07:24:05;;;;;;;10.88;4.60;;;;;;;9.63;59.61;102009.78;5072732;28;20037;-62
2022/04/10 07:26:30;;;;;;;7.68;4.03;;;;;;;9.78;59.93;101999.75;5073063;28;20032;-59
2022/04/10 07:28:56;;;;;;;11.23;4.90;;;;;;;10.04;58.60;102003.22;5072463;28;20028;-58
2022/04/10 07:31:21;;;;;;;11.07;4.32;;;;;;;10.30;58.34;102005.81;5073004;28;20028;-60
2022/04/10 07:33:46;;;;;;;7.75;3.72;;;;;;;10.61;57.02;102015.53;5072894;28;20385;-59
2022/04/10 07:36:12;;;;;;;11.77;4.07;;;;;;;10.94;55.93;102006.78;5072818;28;20495;-58
2022/04/10 07:38:37;;;;;;;8.00;4.00;;;;;;;11.13;57.46;102018.75;5072758;28;20120;-59
2022/04/10 07:41:05;;;;;;;9.85;3.90;;;;;;;11.35;55.12;102020.22;5072656;28;20028;-59
2022/04/10 07:43:31;;;;;;;8.93;3.53;;;;;;;11.52;54.07;102018.94;5072672;28;20074;-59
2022/04/10 07:48:41;;;;;;;8.77;3.50;;;;;;;12.07;53.26;102036.19;5072735;28;20090;-58
2022/04/10 07:51:07;;;;;;;10.73;3.70;;;;;;;12.16;51.85;102032.88;5072448;28;20037;-59
2022/04/10 07:53:32;;;;;;;9.95;3.30;;;;;;;12.25;51.69;102028.69;5072846;28;20031;-58
2022/04/10 07:55:58;;;;;;;11.25;3.40;;;;;;;12.32;50.08;102034.13;5072406;28;20063;-59
2022/04/10 07:58:23;;;;;;;6.75;3.28;;;;;;;12.52;50.18;102043.44;5072515;28;20063;-58
2022/04/10 08:00:48;;;;;;;7.55;3.00;;;;;;;12.77;50.24;102047.50;5072655;28;20043;-59
2022/04/10 08:03:14;;;;;;;10.65;3.10;;;;;;;12.82;47.59;102039.66;5072486;28;20085;-58
2022/04/10 08:05:39;;;;;;;8.27;2.97;;;;;;;12.94;48.40;102046.09;5072522;28;20032;-59
2022/04/10 08:08:05;;;;;;;8.93;2.70;;;;;;;13.21;46.70;102052.81;5072269;28;20055;-59
2022/04/10 08:10:30;;;;;;;10.15;3.00;;;;;;;13.25;46.76;102042.31;5072796;28;20059;-59
2022/04/10 08:12:55;;;;;;;8.48;3.05;;;;;;;13.07;47.54;102039.28;5071497;28;20393;-59
2022/04/10 08:15:21;;;;;;;8.25;2.80;;;;;;;13.13;47.14;102043.81;5072553;28;20020;-58
2022/04/10 08:17:46;;;;;;;7.22;3.00;;;;;;;13.30;46.27;102047.69;5072213;28;20052;-59
2022/04/10 08:20:13;;;;;;;5.95;2.83;;;;;;;13.55;46.69;102054.38;5072300;28;20025;-59
2022/04/10 08:22:39;;;;;;;8.50;2.80;;;;;;;13.60;45.21;102057.97;5072364;28;20146;-59
2022/04/10 08:25:06;;;;;;;6.57;2.50;;;;;;;13.61;44.71;102061.53;5072492;28;20029;-59
2022/04/10 08:27:33;;;;;;;7.80;2.75;;;;;;;13.45;45.35;102057.72;5072047;28;20020;-59
2022/04/10 08:29:59;;;;;;;7.60;3.03;;;;;;;13.04;46.24;102058.66;5072362;28;20025;-58
2022/04/10 08:32:25;;;;;;;7.05;3.15;;;;;;;12.53;46.39;102067.31;5072307;28;20032;-59
2022/04/10 08:34:50;;;;;;;9.93;3.55;;;;;;;12.43;47.36;102067.09;5071955;28;20390;-58
2022/04/10 08:37:16;;;;;;;10.38;3.28;;;;;;;12.34;49.12;102081.03;5072278;28;20020;-59
2022/04/10 08:39:42;;;;;;;7.53;2.70;;;;;;;12.17;49.71;102077.97;5072084;28;20055;-58
2022/04/10 08:42:10;;;;;;;6.35;3.00;;;;;;;11.91;50.47;102081.75;5072194;28;20469;-59
2022/04/10 08:44:36;;;;;;;10.48;2.80;;;;;;;11.57;50.55;102086.13;5071882;28;20052;-59
2022/04/10 08:47:04;;;;;;;11.77;3.53;;;;;;;11.34;51.63;102080.19;5072617;28;20495;-58
2022/04/10 08:49:30;;;;;;;9.98;3.50;;;;;;;11.18;52.01;102086.84;5071864;28;20058;-58
2022/04/10 08:51:57;;;;;;;8.82;2.95;;;;;;;11.51;52.09;102092.13;5072338;28;20060;-59
2022/04/10 08:54:23;;;;;;;8.30;3.03;;;;;;;11.95;51.52;102092.47;5072056;28;20032;-59
2022/04/10 08:56:50;;;;;;;9.30;3.22;;;;;;;12.21;49.85;102097.50;5071786;28;20028;-59
2022/04/10 08:59:17;;;;;;;10.15;3.58;;;;;;;12.63;49.40;102091.38;5071951;28;20024;-59
2022/04/10 09:01:42;;;;;;;9.77;3.40;;;;;;;13.09;48.52;102098.56;5071817;28;20070;-59
2022/04/10 09:04:07;;;;;;;12.82;2.97;;;;;;;13.41;46.40;102093.06;5072255;28;20052;-58
2022/04/10 09:06:33;;;;;;;7.82;2.65;;;;;;;13.83;45.03;102081.38;5071931;28;20040;-58
2022/04/10 09:09:12;;;;;;;8.73;3.08;;;;;;;14.13;46.44;102087.25;5071834;28;20029;-58
2022/04/10 09:11:39;;;;;;;7.38;2.80;;;;;;;14.53;43.14;102088.75;5071647;28;20031;-59
2022/04/10 09:14:05;;;;;;;5.45;2.13;;;;;;;14.81;42.87;102090.91;5072095;28;20481;-60
2022/04/10 09:16:31;;;;;;;7.60;2.50;;;;;;;15.25;40.88;102080.81;5071703;28;20382;-59
2022/04/10 09:19:10;;;;;;;7.95;2.60;;;;;;;15.59;40.13;102083.81;5071842;28;20025;-59
2022/04/10 09:21:40;;;;;;;6.90;2.45;;;;;;;15.76;38.68;102085.81;5071899;28;20072;-58
2022/04/10 09:24:10;;;;;;;6.90;2.50;;;;;;;15.85;37.21;102086.78;5072703;28;20028;-58
2022/04/10 09:26:50;;;;;;;6.40;2.40;;;;;;;15.71;38.14;102081.31;5075566;28;20548;-59
2022/04/10 09:29:17;;;;;;;9.40;2.30;;;;;;;15.56;36.46;102094.47;5075241;28;20040;-58
2022/04/10 09:31:43;;;;;;;6.93;2.60;;;;;;;15.85;38.13;102090.34;5075454;28;20100;-59
2022/04/10 09:34:11;;;;;;;8.35;2.70;;;;;;;15.91;36.74;102092.16;5075418;28;20107;-59
2022/04/10 09:36:37;;;;;;;5.97;2.60;;;;;;;15.89;36.77;102084.16;5075458;28;20322;-58
2022/04/10 09:39:14;;;;;;;5.43;2.25;;;;;;;16.24;38.19;102080.88;5075161;28;20024;-58
2022/04/10 09:41:42;;;;;;;5.55;2.25;;;;;;;15.92;37.33;102084.16;5075754;28;20033;-59
2022/04/10 09:44:19;;;;;;;7.32;2.40;;;;;;;15.65;37.57;102092.81;5075047;28;20056;-58
2022/04/10 09:46:57;;;;;;;9.13;2.40;;;;;;;15.39;39.01;102088.97;5075054;28;20024;-59
2022/04/10 09:49:22;;;;;;;7.10;2.50;;;;;;;15.45;37.98;102089.91;5075127;28;20029;-59
2022/04/10 09:52:11;;;;;;;8.25;2.70;;;;;;;15.78;38.92;102085.81;5074968;28;20029;-59
2022/04/10 09:54:46;;;;;;;6.22;2.40;;;;;;;16.05;34.97;102087.81;5074864;28;20031;-60
2022/04/10 09:57:20;;;;;;;8.32;2.28;;;;;;;16.44;36.91;102076.53;5074753;28;20064;-59
2022/04/10 09:59:47;;;;;;;6.63;2.60;;;;;;;16.51;35.64;102086.38;5074716;28;20037;-59
2022/04/10 10:02:17;;;;;;;3.70;1.80;;;;;;;16.53;33.86;102079.28;5074679;28;20111;-58
2022/04/10 10:04:44;;;;;;;6.15;2.20;;;;;;;16.79;34.20;102083.91;5074857;28;20024;-60
2022/04/10 10:07:17;;;;;;;9.10;2.42;;;;;;;16.83;33.00;102079.47;5074689;28;20028;-59
2022/04/10 10:09:43;;;;;;;6.90;2.08;;;;;;;16.59;33.21;102081.09;5074982;28;20036;-60
2022/04/10 10:12:09;;;;;;;7.72;2.30;;;;;;;16.21;32.86;102086.19;5074709;28;20424;-59
2022/04/10 10:14:36;;;;;;;6.45;2.30;;;;;;;15.71;34.29;102081.31;5074838;28;20024;-58
2022/04/10 10:17:04;;;;;;;4.90;2.30;;;;;;;15.36;35.10;102086.25;5074256;28;20032;-59
2022/04/10 10:19:34;;;;;;;6.07;2.30;;;;;;;15.33;35.12;102075.56;5074487;28;20032;-58
2022/04/10 10:22:00;;;;;;;4.50;2.00;;;;;;;15.37;34.69;102080.03;5074207;28;20090;-59
2022/04/10 10:24:30;;;;;;;6.90;2.30;;;;;;;15.32;34.39;102065.78;5074636;28;20359;-59
2022/04/10 10:27:07;;;;;;;5.18;2.20;;;;;;;15.45;35.81;102076.56;5074169;28;20056;-59
2022/04/10 10:29:45;;;;;;;7.63;2.63;;;;;;;15.31;35.58;102075.53;5074258;28;20040;-59
2022/04/10 10:32:29;;;;;;;8.77;2.72;;;;;;;15.26;36.32;102069.28;5073936;28;20173;-59
2022/04/10 10:34:56;;;;;;;7.72;2.60;;;;;;;15.13;35.83;102072.69;5074334;28;20032;-59
2022/04/10 10:37:31;;;;;;;6.80;2.30;;;;;;;15.08;34.17;102064.66;5073320;28;20438;-58
2022/04/10 10:39:58;;;;;;;6.78;2.33;;;;;;;14.91;34.45;102060.88;5073847;28;20063;-59
2022/04/10 10:42:24;;;;;;;5.85;2.13;;;;;;;15.05;33.97;102072.59;5074161;28;20403;-58
2022/04/10 10:44:50;;;;;;;5.47;2.15;;;;;;;15.53;35.87;102066.91;5073733;28;20104;-59
2022/04/10 10:47:26;;;;;;;9.18;2.53;;;;;;;16.00;36.54;102066.47;5073763;28;20036;-58
2022/04/10 10:49:53;;;;;;;5.68;2.20;;;;;;;16.03;34.85;102069.16;5074011;28;20024;-59
2022/04/10 10:52:21;;;;;;;5.93;2.50;;;;;;;15.81;34.92;102076.97;5073922;28;20048;-60
2022/04/10 10:54:57;;;;;;;5.70;2.30;;;;;;;15.61;34.39;102076.75;5073543;28;20089;-59
2022/04/10 10:57:42;;;;;;;7.63;2.30;;;;;;;15.79;35.64;102076.94;5073648;28;20102;-57
2022/04/10 11:00:09;;;;;;;5.13;2.20;;;;;;;16.16;33.13;102069.25;5073712;28;20033;-59
2022/04/10 11:02:37;;;;;;;5.57;2.25;;;;;;;16.46;33.89;102069.47;5073778;28;20058;-58
2022/04/10 11:05:24;;;;;;;5.43;2.22;;;;;;;16.92;33.50;102069.72;5073284;28;20031;-59
2022/04/10 11:07:57;;;;;;;4.75;2.10;;;;;;;17.22;32.41;102066.28;5073292;28;20031;-59
2022/04/10 11:10:24;;;;;;;;;;;;;;;17.66;34.11;102067.25;5074091;28;20024;-59
2022/04/10 11:12:54;;;;;;;4.95;2.10;;;;;;;17.86;29.73;102070.88;5073650;28;20371;-61
2022/04/10 11:15:19;;;;;;;6.88;2.30;;;;;;;18.40;29.95;102062.78;5073260;28;20053;-58
2022/04/10 11:17:45;;;;;;;9.18;2.88;;;;;;;18.69;30.04;102055.59;5073112;28;20486;-58
2022/04/10 11:20:12;;;;;;;8.52;2.10;;;;;;;18.13;27.96;102064.59;5073462;28;20028;-57
2022/04/10 11:22:51;;;;;;;5.90;2.05;;;;;;;18.18;30.05;102060.13;5073411;28;20023;-57
2022/04/10 11:25:19;;;;;;;5.80;2.38;;;;;;;18.45;28.77;102058.28;5073326;28;20044;-58
2022/04/10 11:27:51;;;;;;;6.95;2.00;;;;;;;18.47;28.39;102057.41;5072941;28;20063;-58